sensor_id;sensor_type;location;lat;lon;timestamp;P1;durP1;ratioP1;P2;durP2;ratioP2
65581;SDS011;52231;40.090;18.348;2022-07-29T00:01:52;14.13;;;7.10;;
65581;SDS011;52231;40.090;18.348;2022-07-29T00:04:21;13.05;;;7.65;;
65581;SDS011;52231;40.090;18.348;2022-07-29T00:06:50;12.55;;;6.93;;
65581;SDS011;52231;40.090;18.348;2022-07-29T00:09:19;12.55;;;7.20;;
65581;SDS011;52231;40.090;18.348;2022-07-29T00:11:48;14.07;;;6.82;;
65581;SDS011;52231;40.090;18.348;2022-07-29T00:14:16;13.73;;;7.28;;
65581;SDS011;52231;40.090;18.348;2022-07-29T00:16:45;14.00;;;6.90;;
65581;SDS011;52231;40.090;18.348;2022-07-29T00:19:13;14.52;;;6.97;;
65581;SDS011;52231;40.090;18.348;2022-07-29T00:21:46;16.95;;;7.63;;
65581;SDS011;52231;40.090;18.348;2022-07-29T00:26:42;13.27;;;7.30;;
65581;SDS011;52231;40.090;18.348;2022-07-29T00:29:13;13.00;;;7.15;;
65581;SDS011;52231;40.090;18.348;2022-07-29T00:31:59;12.07;;;7.03;;
65581;SDS011;52231;40.090;18.348;2022-07-29T00:34:27;14.98;;;7.57;;
65581;SDS011;52231;40.090;18.348;2022-07-29T00:37:15;14.20;;;7.60;;
65581;SDS011;52231;40.090;18.348;2022-07-29T00:39:44;12.40;;;7.10;;
65581;SDS011;52231;40.090;18.348;2022-07-29T00:42:12;12.90;;;7.68;;
65581;SDS011;52231;40.090;18.348;2022-07-29T00:44:41;12.60;;;6.90;;
65581;SDS011;52231;40.090;18.348;2022-07-29T00:47:13;13.23;;;7.53;;
65581;SDS011;52231;40.090;18.348;2022-07-29T00:49:41;12.90;;;7.30;;
65581;SDS011;52231;40.090;18.348;2022-07-29T00:52:10;13.88;;;7.78;;
65581;SDS011;52231;40.090;18.348;2022-07-29T00:54:41;13.52;;;7.55;;
65581;SDS011;52231;40.090;18.348;2022-07-29T00:57:10;15.00;;;7.20;;
65581;SDS011;52231;40.090;18.348;2022-07-29T00:59:40;15.05;;;7.13;;
65581;SDS011;52231;40.090;18.348;2022-07-29T01:02:08;12.40;;;6.95;;
65581;SDS011;52231;40.090;18.348;2022-07-29T01:04:37;13.25;;;7.38;;
65581;SDS011;52231;40.090;18.348;2022-07-29T01:07:05;14.35;;;7.30;;
65581;SDS011;52231;40.090;18.348;2022-07-29T01:09:35;12.48;;;7.13;;
65581;SDS011;52231;40.090;18.348;2022-07-29T01:12:06;14.05;;;7.20;;
65581;SDS011;52231;40.090;18.348;2022-07-29T01:14:35;12.93;;;6.88;;
65581;SDS011;52231;40.090;18.348;2022-07-29T01:17:12;12.10;;;7.10;;
65581;SDS011;52231;40.090;18.348;2022-07-29T01:31:22;12.60;;;7.28;;
65581;SDS011;52231;40.090;18.348;2022-07-29T01:34:01;12.98;;;7.78;;
65581;SDS011;52231;40.090;18.348;2022-07-29T01:36:35;14.10;;;7.53;;
65581;SDS011;52231;40.090;18.348;2022-07-29T01:39:35;14.07;;;7.18;;
65581;SDS011;52231;40.090;18.348;2022-07-29T01:42:16;12.93;;;7.30;;
65581;SDS011;52231;40.090;18.348;2022-07-29T01:47:40;16.27;;;8.18;;
65581;SDS011;52231;40.090;18.348;2022-07-29T01:50:14;13.57;;;7.65;;
65581;SDS011;52231;40.090;18.348;2022-07-29T01:52:56;15.15;;;8.20;;
65581;SDS011;52231;40.090;18.348;2022-07-29T01:55:38;12.88;;;7.55;;
65581;SDS011;52231;40.090;18.348;2022-07-29T01:58:09;15.05;;;7.65;;
65581;SDS011;52231;40.090;18.348;2022-07-29T02:00:41;16.27;;;7.85;;
65581;SDS011;52231;40.090;18.348;2022-07-29T02:03:12;15.90;;;7.65;;
65581;SDS011;52231;40.090;18.348;2022-07-29T02:05:42;13.13;;;7.30;;
65581;SDS011;52231;40.090;18.348;2022-07-29T02:08:13;13.30;;;7.78;;
65581;SDS011;52231;40.090;18.348;2022-07-29T02:11:02;15.00;;;7.45;;
65581;SDS011;52231;40.090;18.348;2022-07-29T02:13:32;15.02;;;8.30;;
65581;SDS011;52231;40.090;18.348;2022-07-29T02:16:04;12.55;;;7.90;;
65581;SDS011;52231;40.090;18.348;2022-07-29T02:18:37;16.45;;;7.93;;
65581;SDS011;52231;40.090;18.348;2022-07-29T02:21:09;14.52;;;8.20;;
65581;SDS011;52231;40.090;18.348;2022-07-29T02:23:39;13.68;;;7.32;;
65581;SDS011;52231;40.090;18.348;2022-07-29T02:26:08;13.25;;;8.07;;
65581;SDS011;52231;40.090;18.348;2022-07-29T02:28:36;14.30;;;8.32;;
65581;SDS011;52231;40.090;18.348;2022-07-29T02:31:12;16.73;;;8.55;;
65581;SDS011;52231;40.090;18.348;2022-07-29T02:33:41;18.88;;;9.23;;
65581;SDS011;52231;40.090;18.348;2022-07-29T02:36:13;19.65;;;11.13;;
65581;SDS011;52231;40.090;18.348;2022-07-29T02:39:02;21.23;;;12.13;;
65581;SDS011;52231;40.090;18.348;2022-07-29T02:44:29;29.83;;;15.73;;
65581;SDS011;52231;40.090;18.348;2022-07-29T02:49:43;23.05;;;13.00;;
65581;SDS011;52231;40.090;18.348;2022-07-29T02:55:15;16.67;;;10.45;;
65581;SDS011;52231;40.090;18.348;2022-07-29T03:00:23;19.60;;;10.70;;
65581;SDS011;52231;40.090;18.348;2022-07-29T03:02:55;16.27;;;9.77;;
65581;SDS011;52231;40.090;18.348;2022-07-29T03:05:26;17.55;;;10.55;;
65581;SDS011;52231;40.090;18.348;2022-07-29T03:07:55;16.73;;;9.85;;
65581;SDS011;52231;40.090;18.348;2022-07-29T03:10:27;17.17;;;10.18;;
65581;SDS011;52231;40.090;18.348;2022-07-29T03:12:57;18.67;;;10.57;;
65581;SDS011;52231;40.090;18.348;2022-07-29T03:15:26;16.38;;;9.35;;
65581;SDS011;52231;40.090;18.348;2022-07-29T03:17:55;17.85;;;9.82;;
65581;SDS011;52231;40.090;18.348;2022-07-29T03:20:24;15.55;;;9.73;;
65581;SDS011;52231;40.090;18.348;2022-07-29T03:22:53;18.02;;;10.32;;
65581;SDS011;52231;40.090;18.348;2022-07-29T03:25:24;17.27;;;9.73;;
65581;SDS011;52231;40.090;18.348;2022-07-29T03:27:54;21.63;;;11.25;;
65581;SDS011;52231;40.090;18.348;2022-07-29T03:30:23;19.00;;;10.48;;
65581;SDS011;52231;40.090;18.348;2022-07-29T03:32:58;17.70;;;10.57;;
65581;SDS011;52231;40.090;18.348;2022-07-29T03:37:54;19.52;;;10.18;;
65581;SDS011;52231;40.090;18.348;2022-07-29T03:40:24;17.40;;;10.10;;
65581;SDS011;52231;40.090;18.348;2022-07-29T03:42:58;17.90;;;10.80;;
65581;SDS011;52231;40.090;18.348;2022-07-29T03:45:30;17.30;;;9.70;;
65581;SDS011;52231;40.090;18.348;2022-07-29T03:48:07;17.55;;;9.73;;
65581;SDS011;52231;40.090;18.348;2022-07-29T03:53:05;22.85;;;9.10;;
65581;SDS011;52231;40.090;18.348;2022-07-29T03:55:36;17.35;;;9.45;;
65581;SDS011;52231;40.090;18.348;2022-07-29T03:58:09;17.13;;;9.48;;
65581;SDS011;52231;40.090;18.348;2022-07-29T04:00:40;18.63;;;9.68;;
65581;SDS011;52231;40.090;18.348;2022-07-29T04:03:10;14.75;;;9.13;;
65581;SDS011;52231;40.090;18.348;2022-07-29T04:05:38;17.98;;;9.02;;
65581;SDS011;52231;40.090;18.348;2022-07-29T04:08:07;17.27;;;9.25;;
65581;SDS011;52231;40.090;18.348;2022-07-29T04:10:35;18.27;;;8.55;;
65581;SDS011;52231;40.090;18.348;2022-07-29T04:13:04;16.00;;;9.00;;
65581;SDS011;52231;40.090;18.348;2022-07-29T04:15:33;15.73;;;8.75;;
65581;SDS011;52231;40.090;18.348;2022-07-29T04:20:29;13.27;;;7.88;;
65581;SDS011;52231;40.090;18.348;2022-07-29T04:23:00;15.02;;;8.15;;
65581;SDS011;52231;40.090;18.348;2022-07-29T04:25:28;13.10;;;7.53;;
65581;SDS011;52231;40.090;18.348;2022-07-29T04:27:57;13.27;;;7.63;;
65581;SDS011;52231;40.090;18.348;2022-07-29T04:30:28;13.20;;;7.80;;
65581;SDS011;52231;40.090;18.348;2022-07-29T04:32:57;13.40;;;7.35;;
65581;SDS011;52231;40.090;18.348;2022-07-29T04:35:26;13.43;;;6.80;;
65581;SDS011;52231;40.090;18.348;2022-07-29T04:37:57;11.65;;;6.32;;
65581;SDS011;52231;40.090;18.348;2022-07-29T04:40:26;12.10;;;5.90;;
65581;SDS011;52231;40.090;18.348;2022-07-29T04:42:54;12.13;;;6.20;;
65581;SDS011;52231;40.090;18.348;2022-07-29T04:45:24;13.60;;;5.03;;
65581;SDS011;52231;40.090;18.348;2022-07-29T04:47:54;9.88;;;5.32;;
65581;SDS011;52231;40.090;18.348;2022-07-29T04:50:23;10.43;;;5.13;;
65581;SDS011;52231;40.090;18.348;2022-07-29T04:52:53;11.43;;;5.05;;
65581;SDS011;52231;40.090;18.348;2022-07-29T04:55:21;9.32;;;4.80;;
65581;SDS011;52231;40.090;18.348;2022-07-29T04:57:50;9.90;;;4.88;;
65581;SDS011;52231;40.090;18.348;2022-07-29T05:00:18;9.15;;;4.38;;
65581;SDS011;52231;40.090;18.348;2022-07-29T05:02:55;9.95;;;4.70;;
65581;SDS011;52231;40.090;18.348;2022-07-29T05:05:32;11.15;;;4.70;;
65581;SDS011;52231;40.090;18.348;2022-07-29T05:08:05;11.15;;;4.35;;
65581;SDS011;52231;40.090;18.348;2022-07-29T05:10:34;8.25;;;4.32;;
65581;SDS011;52231;40.090;18.348;2022-07-29T05:13:05;9.75;;;4.80;;
65581;SDS011;52231;40.090;18.348;2022-07-29T05:15:34;10.93;;;4.43;;
65581;SDS011;52231;40.090;18.348;2022-07-29T05:18:04;10.55;;;4.53;;
65581;SDS011;52231;40.090;18.348;2022-07-29T05:20:32;10.10;;;4.40;;
65581;SDS011;52231;40.090;18.348;2022-07-29T05:23:02;8.90;;;4.45;;
65581;SDS011;52231;40.090;18.348;2022-07-29T05:25:30;10.80;;;4.45;;
65581;SDS011;52231;40.090;18.348;2022-07-29T05:28:01;10.77;;;4.32;;
65581;SDS011;52231;40.090;18.348;2022-07-29T05:30:29;10.48;;;4.22;;
65581;SDS011;52231;40.090;18.348;2022-07-29T05:32:57;9.43;;;4.65;;
65581;SDS011;52231;40.090;18.348;2022-07-29T05:35:25;10.07;;;4.88;;
65581;SDS011;52231;40.090;18.348;2022-07-29T05:37:54;10.25;;;4.55;;
65581;SDS011;52231;40.090;18.348;2022-07-29T05:40:23;7.80;;;3.83;;
65581;SDS011;52231;40.090;18.348;2022-07-29T05:42:51;8.25;;;3.97;;
65581;SDS011;52231;40.090;18.348;2022-07-29T05:45:19;8.30;;;3.80;;
65581;SDS011;52231;40.090;18.348;2022-07-29T05:47:49;8.40;;;4.05;;
65581;SDS011;52231;40.090;18.348;2022-07-29T05:50:17;7.45;;;3.60;;
65581;SDS011;52231;40.090;18.348;2022-07-29T05:52:46;10.93;;;3.78;;
65581;SDS011;52231;40.090;18.348;2022-07-29T05:55:23;7.22;;;3.80;;
65581;SDS011;52231;40.090;18.348;2022-07-29T05:57:52;8.05;;;3.97;;
65581;SDS011;52231;40.090;18.348;2022-07-29T06:00:20;9.15;;;3.60;;
65581;SDS011;52231;40.090;18.348;2022-07-29T06:02:51;8.80;;;3.70;;
65581;SDS011;52231;40.090;18.348;2022-07-29T06:05:20;8.30;;;3.67;;
65581;SDS011;52231;40.090;18.348;2022-07-29T06:07:49;8.50;;;3.63;;
65581;SDS011;52231;40.090;18.348;2022-07-29T06:10:20;8.02;;;3.50;;
65581;SDS011;52231;40.090;18.348;2022-07-29T06:12:49;8.30;;;3.83;;
65581;SDS011;52231;40.090;18.348;2022-07-29T06:15:24;10.45;;;3.50;;
65581;SDS011;52231;40.090;18.348;2022-07-29T06:18:11;8.00;;;3.72;;
65581;SDS011;52231;40.090;18.348;2022-07-29T06:20:40;7.13;;;3.30;;
65581;SDS011;52231;40.090;18.348;2022-07-29T06:23:09;8.63;;;3.60;;
65581;SDS011;52231;40.090;18.348;2022-07-29T06:25:41;8.95;;;3.65;;
65581;SDS011;52231;40.090;18.348;2022-07-29T06:28:16;8.88;;;3.15;;
65581;SDS011;52231;40.090;18.348;2022-07-29T06:30:45;7.82;;;3.45;;
65581;SDS011;52231;40.090;18.348;2022-07-29T06:33:17;6.30;;;3.28;;
65581;SDS011;52231;40.090;18.348;2022-07-29T06:35:52;7.13;;;3.70;;
65581;SDS011;52231;40.090;18.348;2022-07-29T06:38:23;6.80;;;3.30;;
65581;SDS011;52231;40.090;18.348;2022-07-29T06:40:52;8.10;;;3.85;;
65581;SDS011;52231;40.090;18.348;2022-07-29T06:43:34;9.23;;;3.60;;
65581;SDS011;52231;40.090;18.348;2022-07-29T06:46:05;7.93;;;3.53;;
65581;SDS011;52231;40.090;18.348;2022-07-29T06:51:08;7.72;;;3.50;;
65581;SDS011;52231;40.090;18.348;2022-07-29T06:53:38;6.80;;;3.13;;
65581;SDS011;52231;40.090;18.348;2022-07-29T06:56:07;6.55;;;3.17;;
65581;SDS011;52231;40.090;18.348;2022-07-29T06:58:39;10.52;;;3.65;;
65581;SDS011;52231;40.090;18.348;2022-07-29T07:01:11;7.15;;;3.28;;
65581;SDS011;52231;40.090;18.348;2022-07-29T07:03:41;7.72;;;3.00;;
65581;SDS011;52231;40.090;18.348;2022-07-29T07:06:10;7.03;;;3.20;;
65581;SDS011;52231;40.090;18.348;2022-07-29T07:08:47;6.28;;;3.10;;
65581;SDS011;52231;40.090;18.348;2022-07-29T07:11:16;8.25;;;3.30;;
65581;SDS011;52231;40.090;18.348;2022-07-29T07:13:44;6.32;;;3.05;;
65581;SDS011;52231;40.090;18.348;2022-07-29T07:16:15;7.93;;;3.50;;
65581;SDS011;52231;40.090;18.348;2022-07-29T07:18:47;7.70;;;3.00;;
65581;SDS011;52231;40.090;18.348;2022-07-29T07:21:15;5.78;;;3.20;;
65581;SDS011;52231;40.090;18.348;2022-07-29T07:23:44;8.65;;;3.45;;
65581;SDS011;52231;40.090;18.348;2022-07-29T07:26:12;8.20;;;3.40;;
65581;SDS011;52231;40.090;18.348;2022-07-29T07:28:41;8.45;;;3.47;;
65581;SDS011;52231;40.090;18.348;2022-07-29T07:31:10;9.55;;;3.50;;
65581;SDS011;52231;40.090;18.348;2022-07-29T07:33:40;7.93;;;3.65;;
65581;SDS011;52231;40.090;18.348;2022-07-29T07:36:08;7.38;;;3.35;;
65581;SDS011;52231;40.090;18.348;2022-07-29T07:38:37;7.32;;;3.33;;
65581;SDS011;52231;40.090;18.348;2022-07-29T07:41:06;7.05;;;3.33;;
65581;SDS011;52231;40.090;18.348;2022-07-29T07:43:35;5.53;;;2.97;;
65581;SDS011;52231;40.090;18.348;2022-07-29T07:46:04;5.82;;;2.92;;
65581;SDS011;52231;40.090;18.348;2022-07-29T07:48:32;7.05;;;3.30;;
65581;SDS011;52231;40.090;18.348;2022-07-29T07:51:02;5.55;;;2.83;;
65581;SDS011;52231;40.090;18.348;2022-07-29T07:53:31;5.97;;;3.00;;
65581;SDS011;52231;40.090;18.348;2022-07-29T07:55:59;9.80;;;3.15;;
65581;SDS011;52231;40.090;18.348;2022-07-29T07:58:36;7.75;;;3.20;;
65581;SDS011;52231;40.090;18.348;2022-07-29T08:01:06;7.80;;;3.17;;
65581;SDS011;52231;40.090;18.348;2022-07-29T08:03:35;6.30;;;2.88;;
65581;SDS011;52231;40.090;18.348;2022-07-29T08:06:04;5.43;;;2.88;;
65581;SDS011;52231;40.090;18.348;2022-07-29T08:08:32;6.82;;;3.15;;
65581;SDS011;52231;40.090;18.348;2022-07-29T08:11:01;5.78;;;3.10;;
65581;SDS011;52231;40.090;18.348;2022-07-29T08:13:54;5.88;;;3.10;;
65581;SDS011;52231;40.090;18.348;2022-07-29T08:16:22;6.97;;;3.13;;
65581;SDS011;52231;40.090;18.348;2022-07-29T08:18:52;6.07;;;2.88;;
65581;SDS011;52231;40.090;18.348;2022-07-29T08:21:28;6.28;;;2.78;;
65581;SDS011;52231;40.090;18.348;2022-07-29T08:23:56;6.95;;;3.10;;
65581;SDS011;52231;40.090;18.348;2022-07-29T08:26:43;6.72;;;3.22;;
65581;SDS011;52231;40.090;18.348;2022-07-29T08:29:12;6.03;;;3.03;;
65581;SDS011;52231;40.090;18.348;2022-07-29T08:31:43;8.48;;;2.90;;
65581;SDS011;52231;40.090;18.348;2022-07-29T08:34:14;7.45;;;3.13;;
65581;SDS011;52231;40.090;18.348;2022-07-29T08:36:42;5.90;;;2.33;;
65581;SDS011;52231;40.090;18.348;2022-07-29T08:39:10;6.97;;;2.90;;
65581;SDS011;52231;40.090;18.348;2022-07-29T08:41:39;7.72;;;3.13;;
65581;SDS011;52231;40.090;18.348;2022-07-29T08:44:08;5.85;;;2.85;;
65581;SDS011;52231;40.090;18.348;2022-07-29T08:46:37;5.13;;;2.67;;
65581;SDS011;52231;40.090;18.348;2022-07-29T08:49:07;5.43;;;2.72;;
65581;SDS011;52231;40.090;18.348;2022-07-29T08:51:36;5.72;;;2.40;;
65581;SDS011;52231;40.090;18.348;2022-07-29T08:54:06;4.95;;;2.60;;
65581;SDS011;52231;40.090;18.348;2022-07-29T08:56:36;5.43;;;2.90;;
65581;SDS011;52231;40.090;18.348;2022-07-29T08:59:06;5.57;;;2.85;;
65581;SDS011;52231;40.090;18.348;2022-07-29T09:01:37;6.22;;;2.90;;
65581;SDS011;52231;40.090;18.348;2022-07-29T09:04:10;6.07;;;2.60;;
65581;SDS011;52231;40.090;18.348;2022-07-29T09:06:46;5.25;;;2.80;;
65581;SDS011;52231;40.090;18.348;2022-07-29T09:09:22;5.32;;;2.92;;
65581;SDS011;52231;40.090;18.348;2022-07-29T09:11:50;4.75;;;2.65;;
65581;SDS011;52231;40.090;18.348;2022-07-29T09:14:21;5.05;;;2.58;;
65581;SDS011;52231;40.090;18.348;2022-07-29T09:16:55;4.07;;;2.42;;
65581;SDS011;52231;40.090;18.348;2022-07-29T09:19:30;5.88;;;2.67;;
65581;SDS011;52231;40.090;18.348;2022-07-29T09:22:02;4.68;;;2.67;;
65581;SDS011;52231;40.090;18.348;2022-07-29T09:24:47;6.72;;;2.63;;
65581;SDS011;52231;40.090;18.348;2022-07-29T09:30:00;4.38;;;2.30;;
65581;SDS011;52231;40.090;18.348;2022-07-29T09:32:55;4.93;;;2.70;;
65581;SDS011;52231;40.090;18.348;2022-07-29T09:35:26;4.93;;;2.65;;
65581;SDS011;52231;40.090;18.348;2022-07-29T09:37:56;5.82;;;2.75;;
65581;SDS011;52231;40.090;18.348;2022-07-29T09:40:26;5.68;;;2.60;;
65581;SDS011;52231;40.090;18.348;2022-07-29T09:42:58;5.07;;;2.65;;
65581;SDS011;52231;40.090;18.348;2022-07-29T09:45:41;6.10;;;2.63;;
65581;SDS011;52231;40.090;18.348;2022-07-29T09:48:14;5.53;;;2.50;;
65581;SDS011;52231;40.090;18.348;2022-07-29T09:50:46;4.45;;;2.50;;
65581;SDS011;52231;40.090;18.348;2022-07-29T09:53:36;5.30;;;2.65;;
65581;SDS011;52231;40.090;18.348;2022-07-29T09:56:07;4.32;;;2.30;;
65581;SDS011;52231;40.090;18.348;2022-07-29T09:58:41;5.90;;;2.60;;
65581;SDS011;52231;40.090;18.348;2022-07-29T10:01:15;5.40;;;2.80;;
65581;SDS011;52231;40.090;18.348;2022-07-29T10:03:50;4.95;;;2.40;;
65581;SDS011;52231;40.090;18.348;2022-07-29T10:06:22;7.22;;;2.30;;
65581;SDS011;52231;40.090;18.348;2022-07-29T10:08:50;5.43;;;2.47;;
65581;SDS011;52231;40.090;18.348;2022-07-29T10:11:20;8.25;;;2.30;;
65581;SDS011;52231;40.090;18.348;2022-07-29T10:13:48;3.63;;;2.28;;
65581;SDS011;52231;40.090;18.348;2022-07-29T10:16:17;6.35;;;2.53;;
65581;SDS011;52231;40.090;18.348;2022-07-29T10:18:45;3.88;;;2.20;;
65581;SDS011;52231;40.090;18.348;2022-07-29T10:21:14;6.07;;;2.28;;
65581;SDS011;52231;40.090;18.348;2022-07-29T10:23:43;5.25;;;2.28;;
65581;SDS011;52231;40.090;18.348;2022-07-29T10:26:16;3.95;;;2.10;;
65581;SDS011;52231;40.090;18.348;2022-07-29T10:28:45;4.93;;;2.22;;
65581;SDS011;52231;40.090;18.348;2022-07-29T10:31:22;5.22;;;2.40;;
65581;SDS011;52231;40.090;18.348;2022-07-29T10:34:02;5.45;;;2.38;;
65581;SDS011;52231;40.090;18.348;2022-07-29T10:39:45;4.47;;;2.35;;
65581;SDS011;52231;40.090;18.348;2022-07-29T10:42:25;4.28;;;2.35;;
65581;SDS011;52231;40.090;18.348;2022-07-29T10:45:15;4.20;;;2.10;;
65581;SDS011;52231;40.090;18.348;2022-07-29T10:47:45;4.05;;;2.30;;
65581;SDS011;52231;40.090;18.348;2022-07-29T10:50:13;7.45;;;2.47;;
65581;SDS011;52231;40.090;18.348;2022-07-29T10:55:39;6.78;;;2.60;;
65581;SDS011;52231;40.090;18.348;2022-07-29T10:58:12;3.53;;;2.13;;
65581;SDS011;52231;40.090;18.348;2022-07-29T11:00:47;6.35;;;2.60;;
65581;SDS011;52231;40.090;18.348;2022-07-29T11:06:10;3.53;;;2.13;;
65581;SDS011;52231;40.090;18.348;2022-07-29T11:08:42;3.45;;;2.05;;
65581;SDS011;52231;40.090;18.348;2022-07-29T11:13:47;3.88;;;2.00;;
65581;SDS011;52231;40.090;18.348;2022-07-29T11:16:19;4.20;;;2.00;;
65581;SDS011;52231;40.090;18.348;2022-07-29T11:21:57;5.65;;;2.60;;
65581;SDS011;52231;40.090;18.348;2022-07-29T11:24:27;3.92;;;1.98;;
65581;SDS011;52231;40.090;18.348;2022-07-29T11:29:50;4.10;;;2.22;;
65581;SDS011;52231;40.090;18.348;2022-07-29T11:32:38;4.95;;;2.10;;
65581;SDS011;52231;40.090;18.348;2022-07-29T11:37:41;7.07;;;2.78;;
65581;SDS011;52231;40.090;18.348;2022-07-29T11:40:12;4.47;;;2.20;;
65581;SDS011;52231;40.090;18.348;2022-07-29T11:42:44;4.75;;;2.58;;
65581;SDS011;52231;40.090;18.348;2022-07-29T11:45:20;5.20;;;2.40;;
65581;SDS011;52231;40.090;18.348;2022-07-29T11:47:53;4.97;;;2.33;;
65581;SDS011;52231;40.090;18.348;2022-07-29T11:50:31;5.53;;;2.60;;
65581;SDS011;52231;40.090;18.348;2022-07-29T11:53:02;4.07;;;2.17;;
65581;SDS011;52231;40.090;18.348;2022-07-29T11:55:39;3.00;;;1.98;;
65581;SDS011;52231;40.090;18.348;2022-07-29T11:58:27;5.43;;;2.45;;
65581;SDS011;52231;40.090;18.348;2022-07-29T12:00:57;6.28;;;2.65;;
65581;SDS011;52231;40.090;18.348;2022-07-29T12:03:28;6.10;;;2.22;;
65581;SDS011;52231;40.090;18.348;2022-07-29T12:05:57;6.10;;;2.53;;
65581;SDS011;52231;40.090;18.348;2022-07-29T12:08:26;4.97;;;2.30;;
65581;SDS011;52231;40.090;18.348;2022-07-29T12:11:01;5.13;;;2.63;;
65581;SDS011;52231;40.090;18.348;2022-07-29T12:13:29;4.78;;;2.20;;
65581;SDS011;52231;40.090;18.348;2022-07-29T12:16:10;6.35;;;2.38;;
65581;SDS011;52231;40.090;18.348;2022-07-29T12:18:42;6.38;;;2.60;;
65581;SDS011;52231;40.090;18.348;2022-07-29T12:21:22;4.15;;;2.28;;
65581;SDS011;52231;40.090;18.348;2022-07-29T12:23:56;3.97;;;2.17;;
65581;SDS011;52231;40.090;18.348;2022-07-29T12:26:28;6.75;;;2.40;;
65581;SDS011;52231;40.090;18.348;2022-07-29T12:28:57;5.05;;;2.53;;
65581;SDS011;52231;40.090;18.348;2022-07-29T12:31:26;5.70;;;2.47;;
65581;SDS011;52231;40.090;18.348;2022-07-29T12:33:58;4.53;;;2.42;;
65581;SDS011;52231;40.090;18.348;2022-07-29T12:36:28;5.35;;;2.42;;
65581;SDS011;52231;40.090;18.348;2022-07-29T12:39:07;8.05;;;2.90;;
65581;SDS011;52231;40.090;18.348;2022-07-29T12:44:13;7.35;;;2.42;;
65581;SDS011;52231;40.090;18.348;2022-07-29T12:46:43;7.15;;;2.50;;
65581;SDS011;52231;40.090;18.348;2022-07-29T12:51:57;6.40;;;2.60;;
65581;SDS011;52231;40.090;18.348;2022-07-29T12:54:30;4.75;;;2.40;;
65581;SDS011;52231;40.090;18.348;2022-07-29T12:57:00;6.20;;;2.97;;
65581;SDS011;52231;40.090;18.348;2022-07-29T12:59:32;5.13;;;2.63;;
65581;SDS011;52231;40.090;18.348;2022-07-29T13:02:05;5.93;;;3.03;;
65581;SDS011;52231;40.090;18.348;2022-07-29T13:04:34;4.75;;;2.88;;
65581;SDS011;52231;40.090;18.348;2022-07-29T13:07:04;6.32;;;2.70;;
65581;SDS011;52231;40.090;18.348;2022-07-29T13:09:36;8.00;;;2.90;;
65581;SDS011;52231;40.090;18.348;2022-07-29T13:12:07;4.68;;;2.50;;
65581;SDS011;52231;40.090;18.348;2022-07-29T13:14:42;6.53;;;2.75;;
65581;SDS011;52231;40.090;18.348;2022-07-29T13:17:13;5.22;;;2.65;;
65581;SDS011;52231;40.090;18.348;2022-07-29T13:19:46;5.93;;;2.70;;
65581;SDS011;52231;40.090;18.348;2022-07-29T13:22:21;5.00;;;2.40;;
65581;SDS011;52231;40.090;18.348;2022-07-29T13:24:55;5.32;;;2.67;;
65581;SDS011;52231;40.090;18.348;2022-07-29T13:27:26;5.82;;;2.88;;
65581;SDS011;52231;40.090;18.348;2022-07-29T13:30:04;5.68;;;2.80;;
65581;SDS011;52231;40.090;18.348;2022-07-29T13:35:10;5.18;;;2.33;;
65581;SDS011;52231;40.090;18.348;2022-07-29T13:37:39;5.53;;;2.83;;
65581;SDS011;52231;40.090;18.348;2022-07-29T13:40:11;5.57;;;2.75;;
65581;SDS011;52231;40.090;18.348;2022-07-29T13:42:41;6.30;;;2.83;;
65581;SDS011;52231;40.090;18.348;2022-07-29T13:45:11;4.50;;;2.50;;
65581;SDS011;52231;40.090;18.348;2022-07-29T13:47:41;6.82;;;2.30;;
65581;SDS011;52231;40.090;18.348;2022-07-29T13:50:15;7.15;;;2.72;;
65581;SDS011;52231;40.090;18.348;2022-07-29T13:52:44;4.70;;;2.58;;
65581;SDS011;52231;40.090;18.348;2022-07-29T13:55:15;4.45;;;2.47;;
65581;SDS011;52231;40.090;18.348;2022-07-29T13:57:45;4.80;;;2.53;;
65581;SDS011;52231;40.090;18.348;2022-07-29T14:00:15;5.63;;;2.78;;
65581;SDS011;52231;40.090;18.348;2022-07-29T14:02:44;4.38;;;2.33;;
65581;SDS011;52231;40.090;18.348;2022-07-29T14:05:13;5.85;;;2.30;;
65581;SDS011;52231;40.090;18.348;2022-07-29T14:07:42;5.25;;;2.50;;
65581;SDS011;52231;40.090;18.348;2022-07-29T14:10:14;5.07;;;2.40;;
65581;SDS011;52231;40.090;18.348;2022-07-29T14:12:46;6.43;;;2.40;;
65581;SDS011;52231;40.090;18.348;2022-07-29T14:15:15;6.05;;;2.70;;
65581;SDS011;52231;40.090;18.348;2022-07-29T14:17:43;5.55;;;2.08;;
65581;SDS011;52231;40.090;18.348;2022-07-29T14:20:12;5.00;;;2.15;;
65581;SDS011;52231;40.090;18.348;2022-07-29T14:22:40;4.70;;;2.28;;
65581;SDS011;52231;40.090;18.348;2022-07-29T14:25:09;6.13;;;2.58;;
65581;SDS011;52231;40.090;18.348;2022-07-29T14:27:38;7.35;;;2.70;;
65581;SDS011;52231;40.090;18.348;2022-07-29T14:30:07;4.72;;;2.45;;
65581;SDS011;52231;40.090;18.348;2022-07-29T14:32:36;5.53;;;2.60;;
65581;SDS011;52231;40.090;18.348;2022-07-29T14:35:05;5.40;;;2.55;;
65581;SDS011;52231;40.090;18.348;2022-07-29T14:37:35;4.32;;;2.40;;
65581;SDS011;52231;40.090;18.348;2022-07-29T14:40:07;5.18;;;2.42;;
65581;SDS011;52231;40.090;18.348;2022-07-29T14:42:37;5.63;;;2.53;;
65581;SDS011;52231;40.090;18.348;2022-07-29T14:45:09;4.30;;;2.05;;
65581;SDS011;52231;40.090;18.348;2022-07-29T14:47:45;5.32;;;2.58;;
65581;SDS011;52231;40.090;18.348;2022-07-29T14:50:19;4.80;;;2.20;;
65581;SDS011;52231;40.090;18.348;2022-07-29T14:52:47;4.25;;;2.40;;
65581;SDS011;52231;40.090;18.348;2022-07-29T14:55:16;3.28;;;2.00;;
65581;SDS011;52231;40.090;18.348;2022-07-29T14:57:45;6.68;;;2.53;;
65581;SDS011;52231;40.090;18.348;2022-07-29T15:00:14;4.38;;;2.40;;
65581;SDS011;52231;40.090;18.348;2022-07-29T15:02:43;5.47;;;2.17;;
65581;SDS011;52231;40.090;18.348;2022-07-29T15:05:27;5.75;;;2.40;;
65581;SDS011;52231;40.090;18.348;2022-07-29T15:07:58;4.93;;;2.20;;
65581;SDS011;52231;40.090;18.348;2022-07-29T15:10:27;7.20;;;2.70;;
65581;SDS011;52231;40.090;18.348;2022-07-29T15:12:57;11.00;;;3.53;;
65581;SDS011;52231;40.090;18.348;2022-07-29T15:15:29;5.93;;;2.90;;
65581;SDS011;52231;40.090;18.348;2022-07-29T15:17:57;6.32;;;2.50;;
65581;SDS011;52231;40.090;18.348;2022-07-29T15:20:26;6.55;;;2.42;;
65581;SDS011;52231;40.090;18.348;2022-07-29T15:22:55;6.00;;;2.38;;
65581;SDS011;52231;40.090;18.348;2022-07-29T15:25:24;6.32;;;2.45;;
65581;SDS011;52231;40.090;18.348;2022-07-29T15:27:54;8.13;;;2.40;;
65581;SDS011;52231;40.090;18.348;2022-07-29T15:30:27;7.85;;;2.90;;
65581;SDS011;52231;40.090;18.348;2022-07-29T15:32:57;5.13;;;2.40;;
65581;SDS011;52231;40.090;18.348;2022-07-29T15:35:26;5.70;;;2.40;;
65581;SDS011;52231;40.090;18.348;2022-07-29T15:37:54;4.60;;;2.30;;
65581;SDS011;52231;40.090;18.348;2022-07-29T15:40:23;4.20;;;2.38;;
65581;SDS011;52231;40.090;18.348;2022-07-29T15:42:56;7.57;;;2.70;;
65581;SDS011;52231;40.090;18.348;2022-07-29T15:45:28;5.78;;;2.60;;
65581;SDS011;52231;40.090;18.348;2022-07-29T15:47:57;5.10;;;2.35;;
65581;SDS011;52231;40.090;18.348;2022-07-29T15:50:29;5.65;;;2.35;;
65581;SDS011;52231;40.090;18.348;2022-07-29T15:52:58;4.85;;;2.22;;
65581;SDS011;52231;40.090;18.348;2022-07-29T15:55:27;5.95;;;2.40;;
65581;SDS011;52231;40.090;18.348;2022-07-29T15:57:56;5.30;;;2.00;;
65581;SDS011;52231;40.090;18.348;2022-07-29T16:00:26;4.80;;;2.17;;
65581;SDS011;52231;40.090;18.348;2022-07-29T16:02:56;7.15;;;2.90;;
65581;SDS011;52231;40.090;18.348;2022-07-29T16:05:25;6.60;;;2.67;;